Portada
METAR-TAF:

METAR-TAF

Aeroports :

Phuket, Tailàndia

latitud: 08-07N, longitud: 098-19E, altitud: 6 m

Observació

L'informe es va fer fa 30 minuts, a les 03:00 UTC
Vent 8 kt del Est, variant entre Nord i Sud-Est
Temperatura 29°C
Humitat 62%
Pressió 1014 hPa
Visibilitat 10 km o més
Escasses núvols a una alçada de 2000 ft

METAR: VTSP 130300Z 08008KT 350V140 9999 FEW020 29/21 Q1014 NOSIG

Hora: 10:30 (03:30 UTC)

Pronòstic

L'informe es va fer fa 4 hores i 30 minuts, a les 23:00 UTC
Pronòstic vàlid del 13 a les 00 UTC al 14 a les 06 UTC
Vent kt del Nord
Visibilitat 10 km o més
Escasses núvols a una alçada de 2000 ft
Evolucionant progressivament
l' 13 a les 01 UTC al 13 a les 03 UTC
Vent 10 kt del Est
Evolucionant progressivament
l' 13 a les 08 UTC al 13 a les 10 UTC
Vent 8 kt del Oest/Nord-Oest

TAF: VTSP 122300Z 1300/1406 00000KT 9999 FEW020 BECMG 1301/1303 10010KT BECMG 1308/1310 30008KT

Observacions i pronòstics meteorològics de més de 4000 aeroports (METAR i TAF).

Les estacions disponibles són els punts grocs i vermells al mapa.

Posi el ratolí al punt desitjat per veure el nom de l'estació.

Feu clic per veure les observacions i els pronòstics meteorològics.

Per canviar el mapa: feu clic els botons verds amb una creu de color negre per apropar; al botó verd amb un guió per allunyar la imatge; o en les fletxes verdes per a mapes adjacents.


METAR-TAF: